createdAt,value
2023-01-20T00:00:00.845Z,25.77
2023-01-20T00:02:46.307Z,27.17
2023-01-20T00:05:31.991Z,28.63
2023-01-20T00:08:17.658Z,25.93
2023-01-20T00:11:07.966Z,29.88
2023-01-20T00:13:55.748Z,27.70
2023-01-20T00:16:41.228Z,26.88
2023-01-20T00:19:27.583Z,27.58
2023-01-20T00:22:12.883Z,25.90
2023-01-20T00:24:58.572Z,27.17
2023-01-20T00:27:44.173Z,28.23
2023-01-20T00:30:30.007Z,38.88
2023-01-20T00:33:15.428Z,28.63
2023-01-20T00:36:01.082Z,27.15
2023-01-20T00:38:47.015Z,27.60
2023-01-20T00:41:32.590Z,24.58
2023-01-20T00:44:18.106Z,23.63
2023-01-20T00:47:20.914Z,27.77
2023-01-20T00:50:06.677Z,26.33
2023-01-20T00:52:52.378Z,28.00
2023-01-20T00:55:38.228Z,26.42
2023-01-20T00:58:24.015Z,28.83
2023-01-20T01:01:10.029Z,29.42
2023-01-20T01:03:55.735Z,30.48
2023-01-20T01:06:41.374Z,30.58
2023-01-20T01:09:26.666Z,26.97
2023-01-20T01:12:12.231Z,29.88
2023-01-20T01:14:57.650Z,28.25
2023-01-20T01:17:46.575Z,29.55
2023-01-20T01:20:32.005Z,32.78
2023-01-20T01:23:17.333Z,26.05
2023-01-20T01:26:02.736Z,28.27
2023-01-20T01:28:49.871Z,29.30
2023-01-20T01:31:35.684Z,23.55
2023-01-20T01:34:21.392Z,26.70
2023-01-20T01:37:06.965Z,28.10
2023-01-20T01:39:52.503Z,28.33
2023-01-20T01:42:38.153Z,25.95
2023-01-20T01:45:29.692Z,25.02
2023-01-20T01:48:16.148Z,31.20
2023-01-20T01:51:07.451Z,31.73
2023-01-20T01:54:05.765Z,26.67
2023-01-20T01:56:51.769Z,28.50
2023-01-20T01:59:37.861Z,28.25
2023-01-20T02:02:24.189Z,29.98
2023-01-20T02:05:11.909Z,28.88
2023-01-20T02:07:58.324Z,31.50
2023-01-20T02:10:43.708Z,31.80
2023-01-20T02:13:29.435Z,30.17
2023-01-20T02:16:21.310Z,30.40
2023-01-20T02:19:15.760Z,32.17
2023-01-20T02:22:16.143Z,29.90
2023-01-20T02:25:22.954Z,26.83
2023-01-20T02:28:42.519Z,28.90
2023-01-20T02:31:51.848Z,25.00
2023-01-20T02:34:58.771Z,25.95
2023-01-20T02:37:55.317Z,31.63
2023-01-20T02:40:53.467Z,24.70
2023-01-20T02:44:03.761Z,21.50
2023-01-20T02:47:09.573Z,20.83
2023-01-20T02:50:01.117Z,21.65
2023-01-20T02:52:51.738Z,15.70
2023-01-20T02:55:53.178Z,20.50
2023-01-20T02:58:48.532Z,18.17
2023-01-20T03:01:49.088Z,18.08
2023-01-20T03:04:41.458Z,15.40
2023-01-20T03:07:30.128Z,19.52
2023-01-20T03:10:20.375Z,16.83
2023-01-20T03:13:13.703Z,17.98
2023-01-20T03:16:04.399Z,17.77
2023-01-20T03:18:51.382Z,15.75
2023-01-20T03:21:37.076Z,16.77
2023-01-20T03:24:23.913Z,18.63
2023-01-20T03:27:11.179Z,15.67
2023-01-20T03:29:56.580Z,20.52
2023-01-20T03:32:46.207Z,17.38
2023-01-20T03:35:32.268Z,21.30
2023-01-20T03:38:17.793Z,16.42
2023-01-20T03:41:25.979Z,18.38
2023-01-20T03:44:27.724Z,20.33
2023-01-20T03:47:34.911Z,16.45
2023-01-20T03:50:59.808Z,14.60
2023-01-20T03:53:54.090Z,20.50
2023-01-20T03:56:51.211Z,16.50
2023-01-20T03:59:40.343Z,15.87
2023-01-20T04:02:28.156Z,16.25
2023-01-20T04:05:14.818Z,17.20
2023-01-20T04:08:03.474Z,17.17
2023-01-20T04:10:51.144Z,18.35
2023-01-20T04:13:36.819Z,16.05
2023-01-20T04:16:24.683Z,17.70
2023-01-20T04:19:10.508Z,16.83
2023-01-20T04:22:10.169Z,16.15
2023-01-20T04:25:01.221Z,15.98
2023-01-20T04:27:46.801Z,15.30
2023-01-20T04:30:32.639Z,14.67
2023-01-20T04:33:18.321Z,15.35
2023-01-20T04:36:04.288Z,14.75
2023-01-20T04:38:49.656Z,15.73
2023-01-20T04:41:35.106Z,15.80
2023-01-20T04:44:20.429Z,15.57
2023-01-20T04:47:06.179Z,19.00
2023-01-20T04:49:51.606Z,14.45
2023-01-20T04:52:37.249Z,15.23
2023-01-20T04:55:22.872Z,15.75
2023-01-20T04:58:10.222Z,22.70
2023-01-20T05:00:55.399Z,14.60
2023-01-20T05:03:41.112Z,27.08
2023-01-20T05:06:26.999Z,16.38
2023-01-20T05:09:16.386Z,15.52
2023-01-20T05:12:02.355Z,16.47
2023-01-20T05:14:47.988Z,17.33
2023-01-20T05:17:33.512Z,17.20
2023-01-20T05:20:20.714Z,15.00
2023-01-20T05:23:06.977Z,20.35
2023-01-20T05:25:53.198Z,16.90
2023-01-20T05:28:38.678Z,16.67
2023-01-20T05:31:24.085Z,16.10
2023-01-20T05:34:10.914Z,15.82
2023-01-20T05:36:56.338Z,15.82
2023-01-20T05:39:41.894Z,20.15
2023-01-20T05:42:27.518Z,18.55
2023-01-20T05:45:13.135Z,15.07
2023-01-20T05:47:59.648Z,19.67
2023-01-20T05:50:45.404Z,24.30
2023-01-20T05:53:30.605Z,14.83
2023-01-20T05:56:16.388Z,17.42
2023-01-20T05:59:01.973Z,19.75
2023-01-20T06:01:47.593Z,17.60
2023-01-20T06:04:33.422Z,15.90
2023-01-20T06:07:19.038Z,16.45
2023-01-20T06:10:05.078Z,17.33
2023-01-20T06:12:54.880Z,14.60
2023-01-20T06:15:40.226Z,14.70
2023-01-20T06:18:25.546Z,16.73
2023-01-20T06:21:11.553Z,20.58
2023-01-20T06:23:57.030Z,13.77
2023-01-20T06:26:42.606Z,16.53
2023-01-20T06:29:28.222Z,13.52
2023-01-20T06:32:13.815Z,15.65
2023-01-20T06:34:59.191Z,14.38
2023-01-20T06:37:44.524Z,20.10
2023-01-20T06:40:31.027Z,14.23
2023-01-20T06:43:16.970Z,15.27
2023-01-20T06:46:04.944Z,20.98
2023-01-20T06:48:50.308Z,14.43
2023-01-20T06:51:35.923Z,15.23
2023-01-20T06:54:21.575Z,12.50
2023-01-20T06:57:06.920Z,14.82
2023-01-20T06:59:52.449Z,14.63
2023-01-20T07:02:37.827Z,15.52
2023-01-20T07:05:23.283Z,19.23
2023-01-20T07:08:08.976Z,16.33
2023-01-20T07:10:54.467Z,15.15
2023-01-20T07:13:39.983Z,13.63
2023-01-20T07:16:25.376Z,15.00
2023-01-20T07:19:12.004Z,15.13
2023-01-20T07:21:57.824Z,17.87
2023-01-20T07:24:42.956Z,15.63
2023-01-20T07:27:28.552Z,18.42
2023-01-20T07:30:14.204Z,13.85
2023-01-20T07:32:59.400Z,19.47
2023-01-20T07:35:44.774Z,16.08
2023-01-20T07:38:30.782Z,15.18
2023-01-20T07:41:18.086Z,13.43
2023-01-20T07:44:03.404Z,17.77
2023-01-20T07:46:51.542Z,14.18
2023-01-20T07:49:37.035Z,15.70
2023-01-20T07:52:22.768Z,15.88
2023-01-20T07:55:07.998Z,13.68
2023-01-20T07:57:53.545Z,15.57
2023-01-20T08:00:39.277Z,15.35
2023-01-20T08:03:27.361Z,16.65
2023-01-20T08:06:15.480Z,13.25
2023-01-20T08:09:02.009Z,13.93
2023-01-20T08:11:47.295Z,11.90
2023-01-20T08:14:32.598Z,12.55
2023-01-20T08:17:17.891Z,13.77
2023-01-20T08:20:03.539Z,14.13
2023-01-20T08:22:48.995Z,13.93
2023-01-20T08:25:34.370Z,14.43
2023-01-20T08:28:19.936Z,13.95
2023-01-20T08:31:08.419Z,12.77
2023-01-20T08:33:55.631Z,17.00
2023-01-20T08:36:41.502Z,18.65
2023-01-20T08:39:27.205Z,13.60
2023-01-20T08:42:13.004Z,13.63
2023-01-20T08:44:58.218Z,13.17
2023-01-20T08:47:45.821Z,16.10
2023-01-20T08:50:31.211Z,13.32
2023-01-20T08:53:16.712Z,12.67
2023-01-20T08:56:03.141Z,12.10
2023-01-20T08:58:48.755Z,13.82
2023-01-20T09:01:36.181Z,13.07
2023-01-20T09:04:21.732Z,15.55
2023-01-20T09:07:08.149Z,13.15
2023-01-20T09:09:53.385Z,10.68
2023-01-20T09:12:39.425Z,12.45
2023-01-20T09:15:25.713Z,10.20
2023-01-20T09:18:11.427Z,12.88
2023-01-20T09:20:58.752Z,11.38
2023-01-20T09:23:46.944Z,12.65
2023-01-20T09:26:38.470Z,12.15
2023-01-20T09:29:24.615Z,11.95
2023-01-20T09:32:12.819Z,11.65
2023-01-20T09:34:58.184Z,14.40
2023-01-20T09:38:01.896Z,8.77
2023-01-20T09:41:22.999Z,10.00
2023-01-20T09:44:36.633Z,11.07
2023-01-20T09:47:30.991Z,8.95
2023-01-20T09:50:37.429Z,7.97
2023-01-20T09:53:41.510Z,8.10
2023-01-20T09:56:29.261Z,10.15
2023-01-20T09:59:30.731Z,7.22
2023-01-20T10:02:25.616Z,6.65
2023-01-20T10:05:13.812Z,6.68
2023-01-20T10:08:08.287Z,7.85
2023-01-20T10:11:01.200Z,8.13
2023-01-20T10:13:56.302Z,7.40
2023-01-20T10:16:50.267Z,8.40
2023-01-20T10:19:47.776Z,6.57
2023-01-20T10:22:53.310Z,7.40
2023-01-20T10:25:45.267Z,7.93
2023-01-20T10:28:36.610Z,9.75
2023-01-20T10:31:27.637Z,8.50
2023-01-20T10:34:18.814Z,7.90
2023-01-20T10:37:10.160Z,6.82
2023-01-20T10:40:13.936Z,6.32
2023-01-20T10:43:04.295Z,7.82
2023-01-20T10:46:03.970Z,6.30
2023-01-20T10:49:27.073Z,6.80
2023-01-20T10:52:19.612Z,5.88
2023-01-20T10:55:18.183Z,5.55
2023-01-20T10:58:20.787Z,6.07
2023-01-20T11:01:10.353Z,7.97
2023-01-20T11:03:55.769Z,8.85
2023-01-20T11:06:41.597Z,5.53
2023-01-20T11:09:35.084Z,5.53
2023-01-20T11:12:27.499Z,7.75
2023-01-20T11:15:33.823Z,7.97
2023-01-20T11:18:22.392Z,6.38
2023-01-20T11:21:12.516Z,6.53
2023-01-20T11:23:58.814Z,6.88
2023-01-20T11:26:44.316Z,6.57
2023-01-20T11:29:32.405Z,7.50
2023-01-20T11:32:35.958Z,7.10
2023-01-20T11:35:25.160Z,6.53
2023-01-20T11:38:28.773Z,7.43
2023-01-20T11:41:23.040Z,7.32
2023-01-20T11:44:08.557Z,6.57
2023-01-20T11:46:55.012Z,5.32
2023-01-20T11:49:40.720Z,5.18
2023-01-20T11:52:26.157Z,5.88
2023-01-20T11:55:17.798Z,6.43
2023-01-20T11:58:04.007Z,6.65
2023-01-20T12:00:52.191Z,5.38
2023-01-20T12:03:41.182Z,5.60
2023-01-20T12:06:30.833Z,7.68
2023-01-20T12:09:19.774Z,6.10
2023-01-20T12:12:15.170Z,8.35
2023-01-20T12:15:19.447Z,7.80
2023-01-20T12:18:18.958Z,6.32
2023-01-20T12:21:10.717Z,7.53
2023-01-20T12:24:07.612Z,6.75
2023-01-20T12:26:53.757Z,7.68
2023-01-20T12:29:45.628Z,4.82
2023-01-20T12:32:33.122Z,5.50
2023-01-20T12:35:20.957Z,4.07
2023-01-20T12:38:08.311Z,7.60
2023-01-20T12:40:55.195Z,5.25
2023-01-20T12:43:56.444Z,6.05
2023-01-20T12:47:33.151Z,5.07
2023-01-20T12:50:44.865Z,6.47
2023-01-20T12:53:43.508Z,5.65
2023-01-20T12:57:02.926Z,5.75
2023-01-20T13:00:05.328Z,5.05
2023-01-20T13:03:30.164Z,4.87
2023-01-20T13:06:42.411Z,6.10
2023-01-20T13:09:52.549Z,7.43
2023-01-20T13:12:56.852Z,4.82
2023-01-20T13:15:48.391Z,5.50
2023-01-20T13:18:47.631Z,5.60
2023-01-20T13:21:34.186Z,5.00
2023-01-20T13:24:29.061Z,4.90
2023-01-20T13:27:23.685Z,7.07
2023-01-20T13:30:44.239Z,3.92
2023-01-20T13:33:33.228Z,5.63
2023-01-20T13:36:23.612Z,6.07
2023-01-20T13:39:40.546Z,8.80
2023-01-20T13:42:31.595Z,5.90
2023-01-20T13:45:19.732Z,9.23
2023-01-20T13:48:10.951Z,5.18
2023-01-20T13:51:16.797Z,7.03
2023-01-20T13:54:32.628Z,6.13
2023-01-20T13:57:26.036Z,8.00
2023-01-20T14:00:12.962Z,10.75
2023-01-20T14:02:58.333Z,8.45
2023-01-20T14:05:48.979Z,6.53
2023-01-20T14:08:39.524Z,6.75
2023-01-20T14:11:26.862Z,6.68
2023-01-20T14:14:18.817Z,7.93
2023-01-20T14:17:15.385Z,7.00
2023-01-20T14:20:00.716Z,9.20
2023-01-20T14:22:46.366Z,7.72
2023-01-20T14:25:31.989Z,6.63
2023-01-20T14:28:19.666Z,7.32
2023-01-20T14:31:19.514Z,8.43
2023-01-20T14:34:32.117Z,6.90
2023-01-20T14:37:24.823Z,8.40
2023-01-20T14:40:16.279Z,5.75
2023-01-20T14:43:12.110Z,6.60
2023-01-20T14:45:57.541Z,6.43
2023-01-20T14:48:44.514Z,6.28
2023-01-20T14:51:30.174Z,6.68
2023-01-20T14:54:49.720Z,6.72
2023-01-20T14:57:43.424Z,5.10
2023-01-20T15:00:31.529Z,6.85
2023-01-20T15:03:25.579Z,7.23
2023-01-20T15:06:10.909Z,6.55
2023-01-20T15:09:06.518Z,6.60
2023-01-20T15:12:45.195Z,7.32
2023-01-20T15:15:32.323Z,10.80
2023-01-20T15:18:22.307Z,7.00
2023-01-20T15:21:27.065Z,6.17
2023-01-20T15:24:13.608Z,7.35
2023-01-20T15:27:01.203Z,6.13
2023-01-20T15:29:59.826Z,4.32
2023-01-20T15:32:47.238Z,7.88
2023-01-20T15:35:33.040Z,8.47
2023-01-20T15:38:18.371Z,8.50
2023-01-20T15:41:04.068Z,6.82
2023-01-20T15:43:51.263Z,7.75
2023-01-20T15:46:38.444Z,7.22
2023-01-20T15:49:25.033Z,8.07
2023-01-20T15:52:10.757Z,6.73
2023-01-20T15:54:56.336Z,7.30
2023-01-20T15:57:42.624Z,5.90
2023-01-20T16:00:30.691Z,6.38
2023-01-20T16:03:16.501Z,8.37
2023-01-20T16:06:02.049Z,8.43
2023-01-20T16:08:49.733Z,6.93
2023-01-20T16:11:35.124Z,6.32
2023-01-20T16:14:20.695Z,6.38
2023-01-20T16:17:18.322Z,8.30
2023-01-20T16:20:03.869Z,9.63
2023-01-20T16:22:49.623Z,8.00
2023-01-20T16:25:35.321Z,7.55
2023-01-20T16:28:23.499Z,7.45
2023-01-20T16:31:11.493Z,11.95
2023-01-20T16:33:56.882Z,6.97
2023-01-20T16:36:42.095Z,7.68
2023-01-20T16:39:27.892Z,8.95
2023-01-20T16:42:14.606Z,10.17
2023-01-20T16:45:00.260Z,9.87
2023-01-20T16:47:45.667Z,8.40
2023-01-20T16:50:31.282Z,9.93
2023-01-20T16:53:18.514Z,8.27
2023-01-20T16:56:05.194Z,8.10
2023-01-20T16:58:52.609Z,9.30
2023-01-20T17:01:38.043Z,5.65
2023-01-20T17:04:23.831Z,8.25
2023-01-20T17:07:09.116Z,6.28
2023-01-20T17:09:55.864Z,8.02
2023-01-20T17:12:41.471Z,8.32
2023-01-20T17:15:27.903Z,7.75
2023-01-20T17:18:13.451Z,7.93
2023-01-20T17:21:07.040Z,9.30
2023-01-20T17:23:57.284Z,7.65
2023-01-20T17:26:42.914Z,7.53
2023-01-20T17:29:28.185Z,7.77
2023-01-20T17:32:13.956Z,8.45
2023-01-20T17:34:59.313Z,7.78
2023-01-20T17:37:44.865Z,9.65
2023-01-20T17:40:30.201Z,7.60
2023-01-20T17:43:15.486Z,10.35
2023-01-20T17:46:01.906Z,10.10
2023-01-20T17:48:47.304Z,13.38
2023-01-20T17:51:33.069Z,11.20
2023-01-20T17:54:18.325Z,11.07
2023-01-20T17:57:03.620Z,12.50
2023-01-20T17:59:49.104Z,13.18
2023-01-20T18:02:34.874Z,10.15
2023-01-20T18:05:20.401Z,15.07
2023-01-20T18:08:05.706Z,13.30
2023-01-20T18:10:51.268Z,14.27
2023-01-20T18:13:37.252Z,14.43
2023-01-20T18:16:26.254Z,15.75
2023-01-20T18:19:13.918Z,16.07
2023-01-20T18:22:01.796Z,9.43
2023-01-20T18:24:47.259Z,10.50
2023-01-20T18:27:33.208Z,12.57
2023-01-20T18:30:18.851Z,10.10
2023-01-20T18:33:04.401Z,11.73
2023-01-20T18:35:50.120Z,17.77
2023-01-20T18:38:35.723Z,16.95
2023-01-20T18:41:21.643Z,13.67
2023-01-20T18:44:07.631Z,12.25
2023-01-20T18:46:53.176Z,12.85
2023-01-20T18:49:38.549Z,12.97
2023-01-20T18:52:24.074Z,11.98
2023-01-20T18:55:09.940Z,14.67
2023-01-20T18:57:55.240Z,12.77
2023-01-20T19:00:40.936Z,12.60
2023-01-20T19:03:26.300Z,18.67
2023-01-20T19:06:14.953Z,16.80
2023-01-20T19:09:01.149Z,14.05
2023-01-20T19:11:46.625Z,13.07
2023-01-20T19:14:32.068Z,15.18
2023-01-20T19:17:17.347Z,11.57
2023-01-20T19:20:04.193Z,15.40
2023-01-20T19:22:49.482Z,15.73
2023-01-20T19:25:34.950Z,11.27
2023-01-20T19:28:20.350Z,13.70
2023-01-20T19:31:08.243Z,11.27
2023-01-20T19:33:53.667Z,11.90
2023-01-20T19:36:39.292Z,12.48
2023-01-20T19:39:24.775Z,12.93
2023-01-20T19:42:10.154Z,11.25
2023-01-20T19:44:55.725Z,12.43
2023-01-20T19:47:41.583Z,13.45
2023-01-20T19:50:26.918Z,12.00
2023-01-20T19:53:12.549Z,12.43
2023-01-20T19:56:02.464Z,12.48
2023-01-20T19:58:48.347Z,11.27
2023-01-20T20:01:35.946Z,11.65
2023-01-20T20:04:23.887Z,9.00
2023-01-20T20:07:09.236Z,13.00
2023-01-20T20:09:54.625Z,10.10
2023-01-20T20:12:40.386Z,16.58
2023-01-20T20:15:25.756Z,11.27
2023-01-20T20:18:11.358Z,15.85
2023-01-20T20:20:57.479Z,16.67
2023-01-20T20:23:43.199Z,13.00
2023-01-20T20:26:31.611Z,11.13
2023-01-20T20:29:19.035Z,14.23
2023-01-20T20:32:04.684Z,11.68
2023-01-20T20:34:50.282Z,13.27
2023-01-20T20:37:35.609Z,12.38
2023-01-20T20:40:21.238Z,14.73
2023-01-20T20:43:06.727Z,18.05
2023-01-20T20:45:52.568Z,17.55
2023-01-20T20:48:37.948Z,16.83
2023-01-20T20:51:24.180Z,19.80
2023-01-20T20:54:11.752Z,20.55
2023-01-20T20:56:57.167Z,17.30
2023-01-20T20:59:58.211Z,22.38
2023-01-20T21:02:44.666Z,18.90
2023-01-20T21:05:30.120Z,17.33
2023-01-20T21:08:16.492Z,22.25
2023-01-20T21:11:03.946Z,20.73
2023-01-20T21:13:49.712Z,27.38
2023-01-20T21:16:35.676Z,36.87
2023-01-20T21:19:24.335Z,36.57
2023-01-20T21:22:09.929Z,31.02
2023-01-20T21:24:55.280Z,29.35
2023-01-20T21:27:41.046Z,29.25
2023-01-20T21:30:26.374Z,31.42
2023-01-20T21:33:17.506Z,31.33
2023-01-20T21:36:03.095Z,32.78
2023-01-20T21:38:48.507Z,33.03
2023-01-20T21:41:34.239Z,32.45
2023-01-20T21:44:28.249Z,31.90
2023-01-20T21:47:13.640Z,29.73
2023-01-20T21:50:17.764Z,26.60
2023-01-20T21:53:03.661Z,31.23
2023-01-20T21:55:49.320Z,30.57
2023-01-20T21:58:34.586Z,30.00
2023-01-20T22:01:19.912Z,31.50
2023-01-20T22:04:05.381Z,28.70
2023-01-20T22:06:50.767Z,28.43
2023-01-20T22:09:36.308Z,30.20
2023-01-20T22:12:21.577Z,29.30
2023-01-20T22:15:07.594Z,30.88
2023-01-20T22:17:53.011Z,27.02
2023-01-20T22:20:38.664Z,22.50
2023-01-20T22:23:24.384Z,24.30
2023-01-20T22:26:10.282Z,26.02
2023-01-20T22:28:55.937Z,36.03
2023-01-20T22:31:41.153Z,33.47
2023-01-20T22:34:26.812Z,29.88
2023-01-20T22:37:12.397Z,30.67
2023-01-20T22:39:57.846Z,25.77
2023-01-20T22:42:43.547Z,22.33
2023-01-20T22:45:28.870Z,21.97
2023-01-20T22:48:14.304Z,23.50
2023-01-20T22:51:11.284Z,22.90
2023-01-20T22:53:59.284Z,24.63
2023-01-20T22:56:44.724Z,25.88
2023-01-20T22:59:29.998Z,25.38
2023-01-20T23:02:15.577Z,26.45
2023-01-20T23:05:00.897Z,26.95
2023-01-20T23:07:46.569Z,24.40
2023-01-20T23:10:46.907Z,28.30
2023-01-20T23:13:32.918Z,25.10
2023-01-20T23:16:22.204Z,25.67
2023-01-20T23:19:07.973Z,22.27
2023-01-20T23:21:53.584Z,28.95
2023-01-20T23:24:39.305Z,31.67
2023-01-20T23:27:24.615Z,34.60
2023-01-20T23:30:12.733Z,31.23
2023-01-20T23:32:58.064Z,30.38
2023-01-20T23:35:43.639Z,33.97
2023-01-20T23:38:28.941Z,27.63
2023-01-20T23:41:15.339Z,27.83
2023-01-20T23:44:00.742Z,26.55
2023-01-20T23:46:46.095Z,21.43
2023-01-20T23:49:31.652Z,35.65
2023-01-20T23:52:16.917Z,26.63
2023-01-20T23:55:02.324Z,25.67
2023-01-20T23:57:47.805Z,24.27
